createdAt,value
2022-09-10T00:01:40.685Z,98861.94
2022-09-10T00:04:11.780Z,98861.47
2022-09-10T00:06:41.447Z,98861.22
2022-09-10T00:09:10.496Z,98864.81
2022-09-10T00:11:41.647Z,98860.06
2022-09-10T00:14:15.117Z,98854.69
2022-09-10T00:16:44.203Z,98869.50
2022-09-10T00:19:13.162Z,98866.56
2022-09-10T00:21:42.101Z,98865.47
2022-09-10T00:24:11.079Z,98857.56
2022-09-10T00:26:41.248Z,98857.75
2022-09-10T00:29:12.376Z,98870.06
2022-09-10T00:31:41.245Z,98871.59
2022-09-10T00:34:11.503Z,98856.03
2022-09-10T00:36:41.979Z,98849.81
2022-09-10T00:39:12.926Z,98857.47
2022-09-10T00:41:44.922Z,98860.63
2022-09-10T00:44:57.836Z,98849.47
2022-09-10T00:47:29.391Z,98851.03
2022-09-10T00:50:01.820Z,98847.88
2022-09-10T00:52:30.595Z,98847.09
2022-09-10T00:54:59.910Z,98842.00
2022-09-10T00:57:30.244Z,98842.31
2022-09-10T01:00:01.709Z,98840.22
2022-09-10T01:02:30.502Z,98833.13
2022-09-10T01:04:59.208Z,98835.22
2022-09-10T01:07:29.307Z,98840.78
2022-09-10T01:09:58.878Z,98828.72
2022-09-10T01:12:43.617Z,98820.75
2022-09-10T01:15:20.097Z,98835.28
2022-09-10T01:18:03.385Z,98827.88
2022-09-10T01:20:51.115Z,98831.03
2022-09-10T01:24:06.465Z,98822.03
2022-09-10T01:27:08.354Z,98831.81
2022-09-10T01:29:40.647Z,98828.16
2022-09-10T01:32:12.921Z,98826.03
2022-09-10T01:34:45.757Z,98837.94
2022-09-10T01:37:17.542Z,98830.59
2022-09-10T01:39:47.439Z,98821.84
2022-09-10T01:42:16.290Z,98823.69
2022-09-10T01:44:48.188Z,98826.34
2022-09-10T01:47:26.968Z,98839.06
2022-09-10T01:50:14.072Z,98842.19
2022-09-10T01:52:47.812Z,98834.78
2022-09-10T01:55:26.775Z,98835.03
2022-09-10T01:58:01.199Z,98824.97
2022-09-10T02:00:33.333Z,98836.41
2022-09-10T02:03:06.451Z,98840.66
2022-09-10T02:05:37.591Z,98835.81
2022-09-10T02:08:16.543Z,98849.59
2022-09-10T02:10:52.157Z,98829.16
2022-09-10T02:13:21.396Z,98840.28
2022-09-10T02:15:52.326Z,98831.59
2022-09-10T02:18:21.531Z,98843.72
2022-09-10T02:20:51.813Z,98837.16
2022-09-10T02:23:23.775Z,98812.59
2022-09-10T02:25:53.679Z,98831.88
2022-09-10T02:28:22.337Z,98835.38
2022-09-10T02:30:52.863Z,98834.34
2022-09-10T02:33:21.841Z,98849.06
2022-09-10T02:35:51.971Z,98850.59
2022-09-10T02:38:21.332Z,98845.00
2022-09-10T02:40:50.048Z,98849.97
2022-09-10T02:43:18.775Z,98848.69
2022-09-10T02:45:47.475Z,98844.16
2022-09-10T02:48:18.225Z,98840.78
2022-09-10T02:50:47.236Z,98838.66
2022-09-10T02:53:16.154Z,98838.19
2022-09-10T02:55:46.114Z,98834.78
2022-09-10T02:58:15.077Z,98833.44
2022-09-10T03:00:43.936Z,98836.06
2022-09-10T03:03:13.038Z,98825.69
2022-09-10T03:05:43.308Z,98827.97
2022-09-10T03:08:11.971Z,98826.66
2022-09-10T03:10:41.186Z,98824.56
2022-09-10T03:13:09.862Z,98832.47
2022-09-10T03:15:38.480Z,98834.06
2022-09-10T03:18:08.276Z,98834.06
2022-09-10T03:20:36.961Z,98833.25
2022-09-10T03:23:07.354Z,98825.31
2022-09-10T03:25:36.298Z,98834.06
2022-09-10T03:28:04.959Z,98830.31
2022-09-10T03:30:33.767Z,98828.91
2022-09-10T03:33:02.474Z,98823.53
2022-09-10T03:35:31.099Z,98824.56
2022-09-10T03:37:59.734Z,98831.69
2022-09-10T03:40:30.523Z,98829.56
2022-09-10T03:42:59.205Z,98821.81
2022-09-10T03:45:28.584Z,98818.19
2022-09-10T03:47:57.464Z,98819.78
2022-09-10T03:50:26.385Z,98817.94
2022-09-10T03:52:55.019Z,98825.59
2022-09-10T03:55:23.801Z,98817.16
2022-09-10T03:57:53.829Z,98822.34
2022-09-10T04:00:23.265Z,98820.03
2022-09-10T04:02:52.029Z,98834.56
2022-09-10T04:05:20.834Z,98817.06
2022-09-10T04:07:49.452Z,98809.78
2022-09-10T04:10:18.965Z,98821.13
2022-09-10T04:12:48.810Z,98823.19
2022-09-10T04:15:18.880Z,98821.06
2022-09-10T04:17:48.272Z,98818.94
2022-09-10T04:20:16.971Z,98825.56
2022-09-10T04:22:46.371Z,98826.00
2022-09-10T04:25:15.669Z,98809.13
2022-09-10T04:27:44.362Z,98813.66
2022-09-10T04:30:14.353Z,98823.44
2022-09-10T04:32:45.096Z,98818.75
2022-09-10T04:35:15.244Z,98812.41
2022-09-10T04:37:44.160Z,98822.47
2022-09-10T04:40:12.872Z,98828.28
2022-09-10T04:42:41.641Z,98828.78
2022-09-10T04:45:10.914Z,98834.66
2022-09-10T04:47:39.588Z,98824.03
2022-09-10T04:50:11.246Z,98839.63
2022-09-10T04:52:39.934Z,98833.25
2022-09-10T04:55:09.376Z,98835.16
2022-09-10T04:57:38.073Z,98838.59
2022-09-10T05:00:08.832Z,98835.63
2022-09-10T05:02:37.628Z,98847.28
2022-09-10T05:05:07.511Z,98855.63
2022-09-10T05:07:37.477Z,98855.13
2022-09-10T05:10:10.370Z,98847.47
2022-09-10T05:12:40.354Z,98844.25
2022-09-10T05:15:10.657Z,98843.75
2022-09-10T05:17:39.766Z,98854.03
2022-09-10T05:20:08.952Z,98851.69
2022-09-10T05:22:40.726Z,98846.66
2022-09-10T05:25:10.182Z,98854.03
2022-09-10T05:27:38.883Z,98848.16
2022-09-10T05:30:08.943Z,98850.81
2022-09-10T05:32:38.442Z,98854.53
2022-09-10T05:35:08.661Z,98854.03
2022-09-10T05:37:37.239Z,98850.91
2022-09-10T05:40:09.184Z,98844.59
2022-09-10T05:42:38.174Z,98839.25
2022-09-10T05:45:08.007Z,98853.28
2022-09-10T05:47:37.505Z,98856.00
2022-09-10T05:50:07.234Z,98852.06
2022-09-10T05:52:35.916Z,98861.03
2022-09-10T05:55:05.229Z,98857.56
2022-09-10T05:57:35.449Z,98853.16
2022-09-10T06:00:07.680Z,98851.25
2022-09-10T06:02:36.540Z,98861.81
2022-09-10T06:05:06.037Z,98853.91
2022-09-10T06:07:35.210Z,98849.91
2022-09-10T06:10:03.920Z,98857.97
2022-09-10T06:12:34.168Z,98856.28
2022-09-10T06:15:04.681Z,98859.53
2022-09-10T06:17:33.701Z,98864.56
2022-09-10T06:20:02.564Z,98861.44
2022-09-10T06:22:32.011Z,98865.41
2022-09-10T06:25:00.636Z,98878.59
2022-09-10T06:27:29.803Z,98864.88
2022-09-10T06:29:58.646Z,98875.94
2022-09-10T06:32:28.998Z,98869.09
2022-09-10T06:34:57.613Z,98873.63
2022-09-10T06:37:26.941Z,98865.66
2022-09-10T06:39:55.685Z,98876.81
2022-09-10T06:42:24.300Z,98873.13
2022-09-10T06:44:53.351Z,98879.75
2022-09-10T06:50:12.291Z,98880.03
2022-09-10T06:52:41.050Z,98881.22
2022-09-10T06:55:10.694Z,98879.97
2022-09-10T06:57:40.006Z,98885.91
2022-09-10T07:00:10.149Z,98891.41
2022-09-10T07:02:38.757Z,98901.78
2022-09-10T07:05:07.928Z,98892.03
2022-09-10T07:07:38.769Z,98899.19
2022-09-10T07:10:08.413Z,98887.84
2022-09-10T07:12:37.059Z,98881.47
2022-09-10T07:15:06.412Z,98895.19
2022-09-10T07:17:36.223Z,98895.94
2022-09-10T07:20:05.701Z,98901.22
2022-09-10T07:22:34.468Z,98899.19
2022-09-10T07:25:04.984Z,98910.03
2022-09-10T07:27:34.018Z,98905.66
2022-09-10T07:30:02.674Z,98914.47
2022-09-10T07:32:33.465Z,98921.41
2022-09-10T07:35:02.133Z,98922.06
2022-09-10T07:37:30.843Z,98921.63
2022-09-10T07:39:59.827Z,98926.34
2022-09-10T07:42:30.063Z,98932.16
2022-09-10T07:44:59.129Z,98933.78
2022-09-10T07:47:27.831Z,98941.00
2022-09-10T07:49:56.883Z,98931.25
2022-09-10T07:52:26.075Z,98942.59
2022-09-10T07:54:54.752Z,98945.00
2022-09-10T07:57:23.357Z,98932.84
2022-09-10T07:59:53.773Z,98943.16
2022-09-10T08:02:25.708Z,98946.06
2022-09-10T08:04:54.610Z,98947.38
2022-09-10T08:07:23.335Z,98956.69
2022-09-10T08:09:51.945Z,98959.81
2022-09-10T08:12:20.635Z,98949.53
2022-09-10T08:14:49.328Z,98952.03
2022-09-10T08:17:20.341Z,98959.63
2022-09-10T08:19:50.585Z,98966.22
2022-09-10T08:22:20.441Z,98965.09
2022-09-10T08:24:49.425Z,98956.75
2022-09-10T08:27:18.683Z,98960.28
2022-09-10T08:29:47.338Z,98966.22
2022-09-10T08:32:16.105Z,98961.75
2022-09-10T08:34:46.152Z,98974.19
2022-09-10T08:37:16.179Z,98967.59
2022-09-10T08:39:44.997Z,98969.00
2022-09-10T08:42:17.664Z,98971.66
2022-09-10T08:44:50.327Z,98972.88
2022-09-10T08:47:27.363Z,98974.47
2022-09-10T08:50:00.323Z,98975.16
2022-09-10T08:52:33.949Z,98967.28
2022-09-10T08:55:07.649Z,98970.50
2022-09-10T08:57:40.038Z,98972.16
2022-09-10T09:00:14.523Z,98971.69
2022-09-10T09:02:49.990Z,98962.25
2022-09-10T09:05:22.726Z,98963.03
2022-09-10T09:07:53.302Z,98952.69
2022-09-10T09:10:30.311Z,98961.22
2022-09-10T09:13:18.040Z,98954.38
2022-09-10T09:15:51.756Z,98947.72
2022-09-10T09:18:27.988Z,98946.47
2022-09-10T09:21:01.849Z,98951.75
2022-09-10T09:23:34.516Z,98938.97
2022-09-10T09:26:05.810Z,98942.78
2022-09-10T09:28:40.838Z,98947.25
2022-09-10T09:31:14.901Z,98960.97
2022-09-10T09:33:45.317Z,98945.09
2022-09-10T09:36:19.043Z,98947.25
2022-09-10T09:38:50.775Z,98943.28
2022-09-10T09:41:26.176Z,98950.72
2022-09-10T09:43:58.925Z,98944.88
2022-09-10T09:46:27.733Z,98944.09
2022-09-10T09:49:00.028Z,98934.28
2022-09-10T09:51:35.367Z,98948.59
2022-09-10T09:56:59.278Z,98948.84
2022-09-10T09:59:29.836Z,98940.91
2022-09-10T10:02:05.693Z,98949.66
2022-09-10T10:04:41.511Z,98960.78
2022-09-10T10:07:12.964Z,98940.94
2022-09-10T10:09:44.440Z,98944.06
2022-09-10T10:12:20.741Z,98945.66
2022-09-10T10:14:49.976Z,98944.34
2022-09-10T10:17:36.653Z,98955.22
2022-09-10T10:20:13.320Z,98936.94
2022-09-10T10:22:44.601Z,98944.63
2022-09-10T10:25:41.126Z,98944.84
2022-09-10T10:28:16.353Z,98943.00
2022-09-10T10:30:45.273Z,98942.16
2022-09-10T10:33:19.171Z,98927.13
2022-09-10T10:35:49.860Z,98935.56
2022-09-10T10:38:30.627Z,98939.50
2022-09-10T10:41:24.264Z,98931.00
2022-09-10T10:43:59.440Z,98928.31
2022-09-10T10:46:30.201Z,98932.53
2022-09-10T10:49:06.805Z,98917.19
2022-09-10T10:51:44.176Z,98931.19
2022-09-10T10:54:25.688Z,98911.34
2022-09-10T10:57:02.491Z,98923.28
2022-09-10T10:59:42.407Z,98915.88
2022-09-10T11:02:16.208Z,98917.88
2022-09-10T11:04:47.911Z,98910.66
2022-09-10T11:07:23.703Z,98898.59
2022-09-10T11:09:58.917Z,98918.59
2022-09-10T11:12:31.482Z,98905.31
2022-09-10T11:15:04.604Z,98893.09
2022-09-10T11:17:39.351Z,98889.94
2022-09-10T11:20:30.256Z,98903.72
2022-09-10T11:23:04.747Z,98882.63
2022-09-10T11:25:38.444Z,98890.44
2022-09-10T11:28:12.946Z,98894.31
2022-09-10T11:30:45.772Z,98896.38
2022-09-10T11:33:18.825Z,98898.00
2022-09-10T11:35:52.071Z,98887.13
2022-09-10T11:38:27.699Z,98877.75
2022-09-10T11:41:07.209Z,98890.91
2022-09-10T11:43:41.104Z,98875.78
2022-09-10T11:46:11.704Z,98870.16
2022-09-10T11:48:43.480Z,98882.88
2022-09-10T11:51:15.853Z,98880.75
2022-09-10T11:53:45.313Z,98873.56
2022-09-10T11:56:32.729Z,98857.44
2022-09-10T11:59:10.869Z,98873.19
2022-09-10T12:01:55.995Z,98869.19
2022-09-10T12:04:40.453Z,98879.50
2022-09-10T12:07:21.057Z,98868.44
2022-09-10T12:09:58.372Z,98863.19
2022-09-10T12:12:34.520Z,98874.78
2022-09-10T12:15:08.942Z,98869.09
2022-09-10T12:17:40.041Z,98872.66
2022-09-10T12:20:15.876Z,98870.94
2022-09-10T12:22:44.913Z,98873.31
2022-09-10T12:25:28.362Z,98870.53
2022-09-10T12:28:03.077Z,98860.50
2022-09-10T12:31:02.724Z,98860.66
2022-09-10T12:34:07.450Z,98854.94
2022-09-10T12:37:16.691Z,98868.34
2022-09-10T12:39:49.123Z,98859.63
2022-09-10T12:42:28.983Z,98846.72
2022-09-10T12:44:59.173Z,98856.63
2022-09-10T12:47:43.647Z,98855.59
2022-09-10T12:50:27.325Z,98863.59
2022-09-10T12:53:08.004Z,98848.28
2022-09-10T12:55:42.841Z,98844.19
2022-09-10T12:58:24.167Z,98854.53
2022-09-10T13:01:09.716Z,98843.69
2022-09-10T13:03:38.513Z,98855.44
2022-09-10T13:06:09.816Z,98849.44
2022-09-10T13:08:41.479Z,98859.34
2022-09-10T13:11:17.031Z,98858.38
2022-09-10T13:13:51.650Z,98864.28
2022-09-10T13:16:39.082Z,98866.44
2022-09-10T13:19:45.175Z,98856.13
2022-09-10T13:22:34.886Z,98859.25
2022-09-10T13:25:18.874Z,98851.97
2022-09-10T13:27:48.515Z,98848.25
2022-09-10T13:30:19.246Z,98848.13
2022-09-10T13:32:55.178Z,98848.16
2022-09-10T13:35:59.867Z,98855.81
2022-09-10T13:38:41.406Z,98856.50
2022-09-10T13:41:27.850Z,98847.41
2022-09-10T13:44:11.198Z,98851.91
2022-09-10T13:46:42.650Z,98843.97
2022-09-10T13:49:16.665Z,98855.91
2022-09-10T13:51:50.428Z,98844.81
2022-09-10T13:54:31.166Z,98834.72
2022-09-10T13:57:04.738Z,98846.81
2022-09-10T13:59:34.821Z,98846.81
2022-09-10T14:02:03.478Z,98839.63
2022-09-10T14:04:36.545Z,98841.44
2022-09-10T14:07:08.033Z,98849.66
2022-09-10T14:09:37.673Z,98843.38
2022-09-10T14:12:08.859Z,98853.16
2022-09-10T14:14:41.116Z,98843.59
2022-09-10T14:17:11.921Z,98858.59
2022-09-10T14:19:45.870Z,98861.28
2022-09-10T14:22:17.790Z,98862.34
2022-09-10T14:24:48.205Z,98861.88
2022-09-10T14:27:18.536Z,98858.22
2022-09-10T14:29:47.677Z,98868.38
2022-09-10T14:32:36.207Z,98866.22
2022-09-10T14:35:37.431Z,98874.22
2022-09-10T14:38:22.507Z,98865.44
2022-09-10T14:40:54.394Z,98868.59
2022-09-10T14:43:29.466Z,98865.72
2022-09-10T14:45:58.732Z,98858.59
2022-09-10T14:48:36.990Z,98855.16
2022-09-10T14:51:18.602Z,98845.63
2022-09-10T14:53:51.500Z,98854.06
2022-09-10T14:56:23.280Z,98856.41
2022-09-10T14:58:58.267Z,98856.97
2022-09-10T15:01:27.438Z,98850.66
2022-09-10T15:03:56.457Z,98850.38
2022-09-10T15:06:27.027Z,98853.78
2022-09-10T15:08:57.092Z,98839.94
2022-09-10T15:11:27.452Z,98836.97
2022-09-10T15:13:58.743Z,98839.00
2022-09-10T15:16:28.055Z,98831.53
2022-09-10T15:18:58.270Z,98833.81
2022-09-10T15:21:28.301Z,98842.47
2022-09-10T15:23:56.941Z,98848.06
2022-09-10T15:26:25.787Z,98849.84
2022-09-10T15:28:54.455Z,98844.53
2022-09-10T15:31:23.529Z,98850.06
2022-09-10T15:33:52.571Z,98857.78
2022-09-10T15:36:22.389Z,98848.84
2022-09-10T15:38:55.827Z,98835.66
2022-09-10T15:41:24.490Z,98856.91
2022-09-10T15:43:53.219Z,98860.63
2022-09-10T15:46:24.489Z,98854.03
2022-09-10T15:48:53.542Z,98858.88
2022-09-10T15:51:23.942Z,98852.56
2022-09-10T15:53:53.838Z,98864.81
2022-09-10T15:56:26.011Z,98870.44
2022-09-10T15:58:56.129Z,98875.50
2022-09-10T16:01:26.025Z,98849.38
2022-09-10T16:03:56.313Z,98920.91
2022-09-10T16:06:27.304Z,98926.53
2022-09-10T16:08:57.943Z,98921.84
2022-09-10T16:11:28.372Z,98907.28
2022-09-10T16:14:02.182Z,98909.41
2022-09-10T16:16:34.067Z,98910.69
2022-09-10T16:19:02.876Z,98900.91
2022-09-10T16:21:32.828Z,98908.31
2022-09-10T16:24:02.427Z,98915.19
2022-09-10T16:26:34.491Z,98917.28
2022-09-10T16:29:05.717Z,98914.63
2022-09-10T16:31:35.494Z,98925.75
2022-09-10T16:34:05.625Z,98923.31
2022-09-10T16:36:36.893Z,98928.25
2022-09-10T16:39:12.375Z,98935.63
2022-09-10T16:41:43.838Z,98926.59
2022-09-10T16:44:14.738Z,98931.63
2022-09-10T16:46:43.544Z,98923.69
2022-09-10T16:49:13.815Z,98923.44
2022-09-10T16:51:43.431Z,98926.63
2022-09-10T16:54:13.800Z,98924.50
2022-09-10T16:56:45.354Z,98918.16
2022-09-10T16:59:15.932Z,98919.44
2022-09-10T17:01:45.922Z,98929.28
2022-09-10T17:04:20.444Z,98926.09
2022-09-10T17:06:51.766Z,98927.16
2022-09-10T17:09:20.481Z,98928.47
2022-09-10T17:11:51.195Z,98930.28
2022-09-10T17:14:20.272Z,98922.31
2022-09-10T17:16:49.935Z,98919.41
2022-09-10T17:19:20.145Z,98930.78
2022-09-10T17:21:51.279Z,98929.72
2022-09-10T17:24:22.687Z,98933.69
2022-09-10T17:26:55.082Z,98935.00
2022-09-10T17:29:25.322Z,98936.00
2022-09-10T17:31:55.197Z,98941.75
2022-09-10T17:34:25.177Z,98947.03
2022-09-10T17:36:54.153Z,98952.81
2022-09-10T17:39:23.272Z,98954.66
2022-09-10T17:41:55.178Z,98961.28
2022-09-10T17:44:24.300Z,98962.34
2022-09-10T17:46:53.226Z,98960.00
2022-09-10T17:49:22.043Z,98963.94
2022-09-10T17:51:51.081Z,98955.50
2022-09-10T17:54:20.034Z,98962.31
2022-09-10T17:56:48.838Z,98971.88
2022-09-10T17:59:18.916Z,98961.50
2022-09-10T18:01:47.840Z,98972.94
2022-09-10T18:04:16.710Z,98973.25
2022-09-10T18:06:50.193Z,98977.16
2022-09-10T18:09:21.945Z,98974.59
2022-09-10T18:11:50.642Z,98956.94
2022-09-10T18:14:21.910Z,98957.00
2022-09-10T18:16:51.370Z,98987.41
2022-09-10T18:19:21.171Z,98981.28
2022-09-10T18:21:50.987Z,98984.25
2022-09-10T18:24:20.850Z,98985.03
2022-09-10T18:26:50.350Z,98985.03
2022-09-10T18:29:22.546Z,98992.94
2022-09-10T18:31:53.073Z,98988.97
2022-09-10T18:34:24.056Z,98947.84
2022-09-10T18:36:55.052Z,98986.31
2022-09-10T18:39:25.963Z,98959.47
2022-09-10T18:41:55.182Z,98984.59
2022-09-10T18:44:27.222Z,99003.72
2022-09-10T18:46:56.262Z,98997.63
2022-09-10T18:49:25.847Z,98978.72
2022-09-10T18:51:56.444Z,99001.25
2022-09-10T18:54:28.092Z,99019.56
2022-09-10T18:56:57.471Z,99017.16
2022-09-10T18:59:27.744Z,98978.19
2022-09-10T19:01:56.877Z,99010.28
2022-09-10T19:04:27.395Z,99019.31
2022-09-10T19:06:57.093Z,99019.25
2022-09-10T19:09:27.882Z,99014.03
2022-09-10T19:11:58.393Z,99012.66
2022-09-10T19:14:30.545Z,99015.53
2022-09-10T19:17:01.157Z,99014.53
2022-09-10T19:19:31.722Z,99018.72
2022-09-10T19:22:03.334Z,99018.72
2022-09-10T19:27:21.644Z,98983.16
2022-09-10T19:29:51.926Z,98994.06
2022-09-10T19:32:21.029Z,99014.22
2022-09-10T19:34:50.734Z,99021.88
2022-09-10T19:37:19.735Z,99017.38
2022-09-10T19:39:48.825Z,99011.81
2022-09-10T19:42:18.282Z,99016.03
2022-09-10T19:44:48.057Z,99014.06
2022-09-10T19:47:19.512Z,99016.97
2022-09-10T19:49:48.264Z,98996.78
2022-09-10T19:52:17.033Z,99014.50
2022-09-10T19:54:45.724Z,99010.81
2022-09-10T19:57:14.495Z,99025.66
2022-09-10T19:59:43.227Z,99020.09
2022-09-10T20:02:11.979Z,98996.69
2022-09-10T20:04:42.218Z,99009.47
2022-09-10T20:07:10.881Z,99024.56
2022-09-10T20:09:40.163Z,99020.09
2022-09-10T20:12:09.796Z,99015.19
2022-09-10T20:14:39.115Z,98988.19
2022-09-10T20:17:07.853Z,98988.72
2022-09-10T20:19:36.872Z,98994.91
2022-09-10T20:22:07.786Z,99006.00
2022-09-10T20:24:37.123Z,99019.38
2022-09-10T20:27:06.270Z,99017.47
2022-09-10T20:29:35.112Z,99017.75
2022-09-10T20:32:04.166Z,99020.09
2022-09-10T20:34:34.925Z,98996.09
2022-09-10T20:37:04.235Z,99021.38
2022-09-10T20:39:34.684Z,99026.94
2022-09-10T20:42:04.612Z,99028.56
2022-09-10T20:44:33.315Z,99012.03
2022-09-10T20:47:03.386Z,99030.28
2022-09-10T20:49:32.099Z,99033.50
2022-09-10T20:52:00.837Z,99016.75
2022-09-10T20:54:29.518Z,99037.06
2022-09-10T20:57:00.282Z,99018.28
2022-09-10T20:59:30.549Z,99030.53
2022-09-10T21:01:59.458Z,99043.44
2022-09-10T21:04:28.302Z,99036.31
2022-09-10T21:06:57.131Z,99037.56
2022-09-10T21:09:25.946Z,99036.28
2022-09-10T21:11:54.723Z,99052.06
2022-09-10T21:14:25.615Z,99047.09
2022-09-10T21:16:54.328Z,99041.00
2022-09-10T21:19:24.081Z,99033.03
2022-09-10T21:21:53.063Z,99030.34
2022-09-10T21:24:23.027Z,99032.44
2022-09-10T21:26:53.551Z,99017.53
2022-09-10T21:29:24.252Z,99031.28
2022-09-10T21:31:54.796Z,99039.78
2022-09-10T21:34:24.103Z,99020.78
2022-09-10T21:36:52.860Z,99019.06
2022-09-10T21:39:21.813Z,99030.25
2022-09-10T21:41:51.349Z,99044.81
2022-09-10T21:44:21.980Z,99034.22
2022-09-10T21:46:52.642Z,99052.81
2022-09-10T21:49:21.517Z,99046.09
2022-09-10T21:51:50.439Z,99045.25
2022-09-10T21:54:22.120Z,99042.31
2022-09-10T21:56:54.085Z,99055.81
2022-09-10T21:59:25.289Z,99057.41
2022-09-10T22:01:55.986Z,99058.34
2022-09-10T22:04:24.908Z,99051.06
2022-09-10T22:06:54.472Z,99065.94
2022-09-10T22:09:24.285Z,99052.66
2022-09-10T22:11:54.267Z,99034.13
2022-09-10T22:14:24.491Z,99053.69
2022-09-10T22:16:53.595Z,99042.84
2022-09-10T22:19:25.149Z,99062.56
2022-09-10T22:21:56.671Z,99027.13
2022-09-10T22:24:26.417Z,99054.91
2022-09-10T22:26:55.200Z,99056.00
2022-09-10T22:29:25.203Z,99066.00
2022-09-10T22:31:54.021Z,99057.19
2022-09-10T22:34:24.557Z,99064.06
2022-09-10T22:36:53.456Z,99059.09
2022-09-10T22:39:23.108Z,99019.09
2022-09-10T22:41:52.302Z,99044.56
2022-09-10T22:44:20.993Z,99067.13
2022-09-10T22:46:49.900Z,99031.66
2022-09-10T22:49:18.588Z,99041.88
2022-09-10T22:51:48.966Z,99081.19
2022-09-10T22:54:17.765Z,99065.22
2022-09-10T22:56:46.389Z,99069.28
2022-09-10T22:59:16.305Z,99076.41
2022-09-10T23:01:47.326Z,99076.06
2022-09-10T23:04:16.423Z,99078.50
2022-09-10T23:06:45.221Z,99073.44
2022-09-10T23:09:16.511Z,99078.91
2022-09-10T23:11:45.675Z,99074.91
2022-09-10T23:14:17.653Z,99086.59
2022-09-10T23:16:48.363Z,99077.06
2022-09-10T23:19:18.435Z,99090.56
2022-09-10T23:21:48.703Z,99084.25
2022-09-10T23:24:20.339Z,99076.56
2022-09-10T23:26:49.500Z,99084.69
2022-09-10T23:29:18.307Z,99082.69
2022-09-10T23:31:47.756Z,99077.97
2022-09-10T23:34:18.289Z,99082.38
2022-09-10T23:36:48.789Z,99083.97
2022-09-10T23:39:20.839Z,99079.88
2022-09-10T23:41:49.874Z,99081.47
2022-09-10T23:44:18.866Z,99084.59
2022-09-10T23:46:47.960Z,99079.56
2022-09-10T23:49:16.812Z,99083.00
2022-09-10T23:51:45.537Z,99082.47
2022-09-10T23:54:15.224Z,99083.00
2022-09-10T23:56:45.506Z,99075.91
2022-09-10T23:59:15.234Z,99076.19
